createdAt,value
2022-12-19T00:02:25.814Z,27.00
2022-12-19T00:04:52.200Z,26.67
2022-12-19T00:07:18.530Z,26.42
2022-12-19T00:09:44.844Z,25.98
2022-12-19T00:12:15.885Z,25.45
2022-12-19T00:14:43.827Z,26.48
2022-12-19T00:17:10.146Z,27.30
2022-12-19T00:19:36.768Z,26.08
2022-12-19T00:22:07.103Z,25.83
2022-12-19T00:24:36.026Z,25.75
2022-12-19T00:27:02.358Z,28.27
2022-12-19T00:29:28.684Z,27.48
2022-12-19T00:31:55.056Z,28.48
2022-12-19T00:34:21.570Z,27.95
2022-12-19T00:36:47.892Z,27.10
2022-12-19T00:39:14.229Z,25.50
2022-12-19T00:41:42.583Z,28.05
2022-12-19T00:44:14.243Z,28.20
2022-12-19T00:46:41.511Z,30.08
2022-12-19T00:49:08.406Z,30.27
2022-12-19T00:51:36.659Z,32.70
2022-12-19T00:54:05.297Z,30.98
2022-12-19T00:56:37.529Z,29.08
2022-12-19T00:59:05.005Z,29.83
2022-12-19T01:01:35.132Z,30.42
2022-12-19T01:06:49.417Z,31.90
2022-12-19T01:09:15.842Z,31.33
2022-12-19T01:11:42.249Z,31.85
2022-12-19T01:14:09.524Z,30.85
2022-12-19T01:16:35.887Z,30.90
2022-12-19T01:19:02.241Z,30.13
2022-12-19T01:21:31.495Z,30.70
2022-12-19T01:23:57.796Z,31.80
2022-12-19T01:26:24.150Z,30.05
2022-12-19T01:28:50.497Z,29.45
2022-12-19T01:31:16.866Z,30.38
2022-12-19T01:33:45.562Z,29.80
2022-12-19T01:36:11.890Z,30.52
2022-12-19T01:38:38.226Z,29.92
2022-12-19T01:41:05.354Z,29.65
2022-12-19T01:43:53.089Z,30.67
2022-12-19T01:46:24.773Z,30.92
2022-12-19T01:48:54.432Z,30.45
2022-12-19T01:51:25.067Z,32.00
2022-12-19T01:53:54.200Z,31.40
2022-12-19T01:56:26.182Z,32.78
2022-12-19T01:59:05.554Z,31.42
2022-12-19T02:01:34.648Z,29.88
2022-12-19T02:04:02.269Z,29.65
2022-12-19T02:06:30.406Z,32.13
2022-12-19T02:08:57.174Z,30.88
2022-12-19T02:11:23.554Z,31.40
2022-12-19T02:13:49.953Z,30.92
2022-12-19T02:16:31.467Z,31.42
2022-12-19T02:19:04.305Z,34.17
2022-12-19T02:21:44.316Z,31.25
2022-12-19T02:24:46.643Z,33.15
2022-12-19T02:27:18.885Z,31.88
2022-12-19T02:30:16.123Z,31.92
2022-12-19T02:32:54.711Z,31.65
2022-12-19T02:35:30.065Z,30.90
2022-12-19T02:38:13.282Z,31.30
2022-12-19T02:40:55.398Z,29.02
2022-12-19T02:43:23.773Z,30.33
2022-12-19T02:45:51.703Z,28.13
2022-12-19T02:48:19.958Z,29.05
2022-12-19T02:50:47.948Z,27.10
2022-12-19T02:53:17.260Z,28.23
2022-12-19T02:56:11.484Z,27.05
2022-12-19T02:59:01.849Z,27.95
2022-12-19T03:01:34.384Z,28.45
2022-12-19T03:04:13.373Z,28.35
2022-12-19T03:07:02.627Z,26.05
2022-12-19T03:09:37.283Z,25.80
2022-12-19T03:12:17.161Z,26.92
2022-12-19T03:14:46.877Z,27.92
2022-12-19T03:17:13.246Z,26.55
2022-12-19T03:19:41.021Z,27.70
2022-12-19T03:22:08.101Z,27.73
2022-12-19T03:24:34.507Z,27.15
2022-12-19T03:27:11.144Z,27.17
2022-12-19T03:29:43.007Z,27.95
2022-12-19T03:32:13.058Z,29.17
2022-12-19T03:34:47.859Z,27.90
2022-12-19T03:37:19.733Z,27.90
2022-12-19T03:39:51.549Z,27.05
2022-12-19T03:42:19.738Z,27.95
2022-12-19T03:44:50.034Z,27.48
2022-12-19T03:47:39.052Z,27.67
2022-12-19T03:50:07.594Z,27.02
2022-12-19T03:52:41.619Z,26.08
2022-12-19T03:55:19.020Z,19.95
2022-12-19T03:57:57.140Z,26.45
2022-12-19T04:00:25.146Z,27.83
2022-12-19T04:02:55.713Z,28.70
2022-12-19T04:05:25.131Z,27.67
2022-12-19T04:07:56.151Z,28.58
2022-12-19T04:10:26.159Z,28.00
2022-12-19T04:13:01.092Z,26.98
2022-12-19T04:16:06.427Z,27.88
2022-12-19T04:18:33.685Z,20.65
2022-12-19T04:21:11.271Z,28.45
2022-12-19T04:23:45.012Z,28.98
2022-12-19T04:26:13.593Z,28.98
2022-12-19T04:28:52.754Z,28.50
2022-12-19T04:31:20.873Z,31.17
2022-12-19T04:33:47.340Z,33.80
2022-12-19T04:36:13.736Z,33.13
2022-12-19T04:38:40.282Z,28.70
2022-12-19T04:41:06.797Z,29.20
2022-12-19T04:43:33.152Z,30.15
2022-12-19T04:45:59.993Z,30.15
2022-12-19T04:48:26.413Z,30.27
2022-12-19T04:50:52.803Z,28.73
2022-12-19T04:53:19.282Z,28.75
2022-12-19T04:55:45.614Z,30.48
2022-12-19T04:58:11.974Z,30.92
2022-12-19T05:00:38.620Z,32.38
2022-12-19T05:03:05.086Z,32.72
2022-12-19T05:05:31.589Z,34.10
2022-12-19T05:07:57.922Z,31.90
2022-12-19T05:10:24.305Z,31.58
2022-12-19T05:12:50.634Z,31.58
2022-12-19T05:15:17.170Z,32.15
2022-12-19T05:17:43.478Z,31.92
2022-12-19T05:20:10.297Z,30.60
2022-12-19T05:22:36.648Z,30.63
2022-12-19T05:25:03.071Z,30.92
2022-12-19T05:27:29.402Z,31.70
2022-12-19T05:29:55.739Z,30.95
2022-12-19T05:32:22.176Z,31.75
2022-12-19T05:34:48.494Z,31.05
2022-12-19T05:37:14.847Z,31.33
2022-12-19T05:39:41.151Z,31.27
2022-12-19T05:42:12.178Z,31.50
2022-12-19T05:44:38.911Z,31.80
2022-12-19T05:47:05.418Z,31.45
2022-12-19T05:49:31.783Z,31.48
2022-12-19T05:51:58.119Z,29.88
2022-12-19T05:54:25.674Z,31.08
2022-12-19T05:56:52.115Z,30.65
2022-12-19T05:59:18.465Z,30.70
2022-12-19T06:01:44.909Z,31.05
2022-12-19T06:04:11.307Z,31.27
2022-12-19T06:06:37.630Z,29.70
2022-12-19T06:09:04.011Z,30.38
2022-12-19T06:11:30.369Z,30.85
2022-12-19T06:13:56.729Z,29.38
2022-12-19T06:16:23.735Z,30.75
2022-12-19T06:18:50.196Z,30.02
2022-12-19T06:21:19.290Z,29.50
2022-12-19T06:23:46.267Z,29.10
2022-12-19T06:26:19.574Z,29.23
2022-12-19T06:28:47.777Z,30.60
2022-12-19T06:31:14.715Z,30.50
2022-12-19T06:33:41.293Z,30.77
2022-12-19T06:36:16.496Z,29.92
2022-12-19T06:38:42.915Z,30.75
2022-12-19T06:41:10.317Z,32.75
2022-12-19T06:43:36.731Z,30.77
2022-12-19T06:46:03.206Z,32.28
2022-12-19T06:48:29.638Z,30.25
2022-12-19T06:50:55.968Z,30.60
2022-12-19T06:53:22.479Z,32.53
2022-12-19T06:55:52.281Z,30.85
2022-12-19T06:58:23.969Z,29.65
2022-12-19T07:00:51.164Z,31.55
2022-12-19T07:03:23.198Z,31.40
2022-12-19T07:05:49.913Z,31.25
2022-12-19T07:08:16.462Z,31.35
2022-12-19T07:10:42.822Z,32.35
2022-12-19T07:13:09.168Z,32.40
2022-12-19T07:15:36.290Z,32.78
2022-12-19T07:18:05.444Z,33.50
2022-12-19T07:20:34.378Z,31.70
2022-12-19T07:23:03.107Z,34.60
2022-12-19T07:25:29.480Z,34.75
2022-12-19T07:27:56.349Z,33.92
2022-12-19T07:30:22.711Z,35.90
2022-12-19T07:32:49.164Z,34.83
2022-12-19T07:35:15.522Z,35.38
2022-12-19T07:37:41.910Z,35.95
2022-12-19T07:40:08.851Z,35.70
2022-12-19T07:42:35.161Z,36.30
2022-12-19T07:45:01.592Z,37.40
2022-12-19T07:47:28.045Z,36.80
2022-12-19T07:49:54.375Z,34.83
2022-12-19T07:52:20.699Z,35.83
2022-12-19T07:54:47.056Z,37.90
2022-12-19T07:57:13.419Z,37.55
2022-12-19T07:59:39.735Z,37.22
2022-12-19T08:02:06.712Z,34.88
2022-12-19T08:04:34.504Z,36.80
2022-12-19T08:07:00.921Z,35.58
2022-12-19T08:09:27.231Z,35.83
2022-12-19T08:11:54.668Z,36.15
2022-12-19T08:14:21.095Z,35.08
2022-12-19T08:17:18.566Z,34.35
2022-12-19T08:19:33.749Z,37.75
2022-12-19T08:22:00.139Z,35.72
2022-12-19T08:24:26.512Z,36.28
2022-12-19T08:26:52.835Z,35.40
2022-12-19T08:29:19.176Z,36.30
2022-12-19T08:31:45.508Z,33.85
2022-12-19T08:34:11.844Z,33.72
2022-12-19T08:36:38.167Z,34.20
2022-12-19T08:39:04.690Z,34.30
2022-12-19T08:41:31.072Z,32.35
2022-12-19T08:43:57.725Z,34.10
2022-12-19T08:46:24.528Z,34.35
2022-12-19T08:48:51.062Z,33.83
2022-12-19T08:51:17.680Z,32.50
2022-12-19T08:53:45.675Z,34.53
2022-12-19T08:56:17.678Z,33.97
2022-12-19T08:58:44.416Z,34.88
2022-12-19T09:01:14.326Z,34.05
2022-12-19T09:04:00.004Z,34.90
2022-12-19T09:06:27.614Z,33.10
2022-12-19T09:08:54.026Z,31.23
2022-12-19T09:11:26.733Z,31.90
2022-12-19T09:13:56.424Z,31.02
2022-12-19T09:16:24.481Z,30.38
2022-12-19T09:18:53.803Z,31.35
2022-12-19T09:21:22.891Z,29.73
2022-12-19T09:23:51.416Z,31.30
2022-12-19T09:26:19.290Z,29.27
2022-12-19T09:28:46.542Z,31.67
2022-12-19T09:31:15.890Z,28.98
2022-12-19T09:33:44.000Z,30.73
2022-12-19T09:36:19.970Z,29.63
2022-12-19T09:38:47.232Z,29.02
2022-12-19T09:41:13.488Z,30.27
2022-12-19T09:43:50.676Z,29.52
2022-12-19T09:48:55.189Z,28.73
2022-12-19T09:51:38.120Z,28.33
2022-12-19T09:54:16.400Z,28.27
2022-12-19T09:56:45.596Z,28.45
2022-12-19T09:59:41.585Z,27.45
2022-12-19T10:02:40.876Z,27.48
2022-12-19T10:06:15.095Z,25.52
2022-12-19T10:08:18.984Z,24.98
2022-12-19T10:12:46.511Z,24.58
2022-12-19T10:14:05.041Z,25.10
2022-12-19T10:17:22.646Z,25.77
2022-12-19T10:20:01.265Z,24.33
2022-12-19T10:22:37.578Z,23.83
2022-12-19T10:25:25.618Z,23.20
2022-12-19T10:28:05.909Z,27.52
2022-12-19T10:30:44.979Z,25.25
2022-12-19T10:33:35.850Z,32.13
2022-12-19T10:36:08.568Z,29.45
2022-12-19T10:38:51.346Z,25.27
2022-12-19T10:41:25.726Z,29.80
2022-12-19T10:43:55.013Z,30.13
2022-12-19T10:46:48.869Z,28.73
2022-12-19T10:49:21.177Z,26.42
2022-12-19T10:52:01.124Z,28.77
2022-12-19T10:54:36.282Z,26.80
2022-12-19T10:57:22.460Z,27.50
2022-12-19T11:00:05.945Z,27.08
2022-12-19T11:02:47.961Z,24.45
2022-12-19T11:05:23.363Z,26.23
2022-12-19T11:08:01.912Z,26.48
2022-12-19T11:13:01.009Z,25.27
2022-12-19T11:18:56.494Z,24.60
2022-12-19T11:20:47.855Z,26.67
2022-12-19T11:29:18.755Z,28.50
2022-12-19T11:29:30.007Z,26.77
2022-12-19T11:30:42.815Z,24.08
2022-12-19T11:30:43.935Z,26.35
2022-12-19T11:32:31.872Z,26.08
2022-12-19T11:34:19.144Z,27.60
2022-12-19T11:37:11.921Z,25.92
2022-12-19T11:39:53.833Z,24.38
2022-12-19T11:42:26.175Z,23.70
2022-12-19T11:45:11.717Z,24.58
2022-12-19T11:47:44.668Z,23.30
2022-12-19T11:50:34.892Z,21.90
2022-12-19T11:53:19.219Z,24.70
2022-12-19T11:55:51.506Z,22.20
2022-12-19T11:58:17.857Z,23.20
2022-12-19T12:00:53.847Z,21.13
2022-12-19T12:03:49.523Z,23.48
2022-12-19T12:06:33.258Z,25.48
2022-12-19T12:11:40.006Z,24.00
2022-12-19T12:20:08.977Z,22.97
2022-12-19T12:28:38.046Z,26.23
2022-12-19T12:31:05.780Z,25.40
2022-12-19T12:31:22.780Z,26.80
2022-12-19T12:31:48.870Z,28.10
2022-12-19T12:32:05.784Z,27.58
2022-12-19T12:35:38.052Z,24.58
2022-12-19T12:38:18.740Z,24.25
2022-12-19T12:40:58.853Z,25.30
2022-12-19T12:43:37.063Z,24.90
2022-12-19T12:46:04.940Z,25.48
2022-12-19T12:48:42.580Z,27.10
2022-12-19T12:51:10.313Z,26.08
2022-12-19T12:53:40.622Z,26.42
2022-12-19T12:56:10.196Z,26.48
2022-12-19T12:58:46.591Z,26.02
2022-12-19T13:01:20.148Z,25.75
2022-12-19T13:04:04.517Z,27.50
2022-12-19T13:06:35.342Z,27.98
2022-12-19T13:09:20.043Z,27.30
2022-12-19T13:11:55.144Z,28.50
2022-12-19T13:14:36.792Z,27.65
2022-12-19T13:17:05.315Z,28.60
2022-12-19T13:19:34.057Z,29.30
2022-12-19T13:22:03.447Z,30.17
2022-12-19T13:24:40.242Z,27.83
2022-12-19T13:27:18.777Z,28.40
2022-12-19T13:30:00.410Z,29.15
2022-12-19T13:32:31.928Z,29.05
2022-12-19T13:35:13.495Z,29.33
2022-12-19T13:40:01.457Z,28.70
2022-12-19T13:41:30.173Z,29.30
2022-12-19T13:43:59.778Z,28.00
2022-12-19T13:46:41.222Z,28.95
2022-12-19T13:49:29.655Z,30.13
2022-12-19T13:52:00.808Z,26.95
2022-12-19T13:54:36.301Z,28.58
2022-12-19T13:57:09.288Z,28.75
2022-12-19T13:59:38.811Z,28.90
2022-12-19T14:02:17.843Z,29.10
2022-12-19T14:04:45.409Z,28.90
2022-12-19T14:07:41.071Z,31.23
2022-12-19T14:14:01.509Z,29.73
2022-12-19T14:15:52.340Z,31.40
2022-12-19T14:18:42.489Z,30.60
2022-12-19T14:22:05.620Z,30.67
2022-12-19T14:24:15.926Z,29.67
2022-12-19T14:28:23.599Z,31.08
2022-12-19T14:30:19.436Z,30.95
2022-12-19T14:33:40.835Z,29.60
2022-12-19T14:36:10.977Z,30.75
2022-12-19T14:39:21.131Z,30.40
2022-12-19T14:41:07.929Z,30.55
2022-12-19T14:44:00.310Z,31.08
2022-12-19T14:51:42.361Z,28.88
2022-12-19T14:54:07.106Z,31.05
2022-12-19T14:54:24.628Z,31.20
2022-12-19T14:56:04.139Z,30.70
2022-12-19T14:58:55.865Z,30.55
2022-12-19T15:01:10.131Z,31.27
2022-12-19T15:03:46.368Z,30.58
2022-12-19T15:07:06.620Z,22.88
2022-12-19T15:11:02.548Z,28.27
2022-12-19T15:14:49.362Z,31.70
2022-12-19T15:15:18.526Z,30.73
2022-12-19T15:17:48.059Z,32.10
2022-12-19T15:20:14.899Z,32.35
2022-12-19T15:22:41.352Z,31.48
2022-12-19T15:25:35.809Z,31.23
2022-12-19T15:28:02.001Z,30.40
2022-12-19T15:30:32.794Z,30.45
2022-12-19T15:32:59.126Z,29.92
2022-12-19T15:35:25.472Z,29.02
2022-12-19T15:37:51.815Z,30.25
2022-12-19T15:40:18.663Z,29.98
2022-12-19T15:42:52.108Z,29.13
2022-12-19T15:45:18.525Z,29.63
2022-12-19T15:47:45.397Z,28.13
2022-12-19T15:50:30.031Z,29.05
2022-12-19T15:52:58.675Z,29.33
2022-12-19T15:55:29.052Z,29.42
2022-12-19T15:57:58.720Z,28.92
2022-12-19T16:00:28.525Z,30.48
2022-12-19T16:05:42.114Z,29.83
2022-12-19T16:08:13.359Z,30.17
2022-12-19T16:10:41.592Z,29.75
2022-12-19T16:13:18.376Z,28.58
2022-12-19T16:18:13.213Z,28.42
2022-12-19T16:20:41.172Z,29.35
2022-12-19T16:23:09.516Z,28.45
2022-12-19T16:25:44.461Z,30.10
2022-12-19T16:28:39.169Z,26.70
2022-12-19T16:31:16.193Z,30.00
2022-12-19T16:33:42.612Z,27.52
2022-12-19T16:36:09.576Z,26.65
2022-12-19T16:38:36.178Z,25.88
2022-12-19T16:41:02.832Z,27.35
2022-12-19T16:43:36.912Z,24.75
2022-12-19T16:46:06.551Z,25.67
2022-12-19T16:48:33.060Z,24.23
2022-12-19T16:50:59.497Z,23.65
2022-12-19T16:53:26.113Z,24.27
2022-12-19T16:55:54.169Z,27.35
2022-12-19T16:58:23.152Z,24.35
2022-12-19T17:00:51.254Z,23.77
2022-12-19T17:03:40.027Z,20.75
2022-12-19T17:06:06.949Z,19.30
2022-12-19T17:08:33.362Z,18.98
2022-12-19T17:10:59.725Z,22.45
2022-12-19T17:13:26.446Z,24.80
2022-12-19T17:15:56.646Z,24.45
2022-12-19T17:18:42.443Z,24.33
2022-12-19T17:21:17.737Z,24.30
2022-12-19T17:23:44.263Z,24.95
2022-12-19T17:26:15.874Z,23.42
2022-12-19T17:28:44.205Z,23.10
2022-12-19T17:31:24.029Z,24.60
2022-12-19T17:33:50.620Z,23.90
2022-12-19T17:36:23.054Z,24.55
2022-12-19T17:38:51.377Z,25.33
2022-12-19T17:41:17.720Z,23.90
2022-12-19T17:43:44.178Z,25.40
2022-12-19T17:46:19.398Z,26.83
2022-12-19T17:48:48.269Z,24.80
2022-12-19T17:51:14.629Z,25.58
2022-12-19T17:53:40.960Z,25.55
2022-12-19T17:56:15.117Z,27.77
2022-12-19T17:58:41.561Z,27.38
2022-12-19T18:01:19.335Z,26.70
2022-12-19T18:03:46.974Z,27.13
2022-12-19T18:06:13.360Z,28.67
2022-12-19T18:08:39.983Z,25.88
2022-12-19T18:11:17.296Z,28.08
2022-12-19T18:13:43.672Z,28.20
2022-12-19T18:16:12.288Z,29.50
2022-12-19T18:18:39.137Z,29.60
2022-12-19T18:21:05.717Z,28.25
2022-12-19T18:23:32.672Z,27.70
2022-12-19T18:26:01.921Z,29.65
2022-12-19T18:28:29.586Z,28.20
2022-12-19T18:31:02.359Z,28.40
2022-12-19T18:33:36.661Z,29.20
2022-12-19T18:36:04.720Z,29.02
2022-12-19T18:38:31.053Z,27.52
2022-12-19T18:40:57.385Z,26.30
2022-12-19T18:43:23.759Z,28.23
2022-12-19T18:45:53.596Z,29.08
2022-12-19T18:48:26.075Z,26.83
2022-12-19T18:50:54.048Z,27.75
2022-12-19T18:53:21.809Z,26.70
2022-12-19T18:55:48.767Z,28.02
2022-12-19T18:58:15.131Z,27.45
2022-12-19T19:00:41.945Z,28.52
2022-12-19T19:03:14.515Z,27.30
2022-12-19T19:05:41.772Z,28.33
2022-12-19T19:08:21.942Z,27.30
2022-12-19T19:10:50.402Z,27.05
2022-12-19T19:13:18.320Z,26.63
2022-12-19T19:16:13.143Z,26.40
2022-12-19T19:18:41.196Z,27.17
2022-12-19T19:21:10.986Z,28.35
2022-12-19T19:23:41.670Z,28.00
2022-12-19T19:26:08.022Z,25.05
2022-12-19T19:28:34.393Z,25.25
2022-12-19T19:31:01.327Z,23.33
2022-12-19T19:33:35.648Z,24.00
2022-12-19T19:36:11.955Z,22.45
2022-12-19T19:38:41.888Z,24.30
2022-12-19T19:41:08.239Z,23.70
2022-12-19T19:43:35.462Z,22.35
2022-12-19T19:46:02.375Z,21.48
2022-12-19T19:48:28.854Z,21.38
2022-12-19T19:50:55.166Z,19.60
2022-12-19T19:53:21.501Z,19.52
2022-12-19T19:55:57.825Z,20.00
2022-12-19T19:58:24.223Z,19.30
2022-12-19T20:00:50.573Z,18.50
2022-12-19T20:03:22.579Z,18.20
2022-12-19T20:05:50.236Z,18.30
2022-12-19T20:08:16.675Z,17.45
2022-12-19T20:10:43.070Z,16.50
2022-12-19T20:13:09.460Z,17.27
2022-12-19T20:15:35.816Z,16.08
2022-12-19T20:18:02.608Z,15.27
2022-12-19T20:20:28.931Z,15.98
2022-12-19T20:22:55.272Z,16.00
2022-12-19T20:25:21.661Z,15.88
2022-12-19T20:27:48.029Z,15.60
2022-12-19T20:30:14.541Z,16.52
2022-12-19T20:32:40.913Z,15.93
2022-12-19T20:35:13.976Z,16.02
2022-12-19T20:37:41.033Z,17.88
2022-12-19T20:40:08.607Z,17.73
2022-12-19T20:42:34.977Z,19.20
2022-12-19T20:45:01.367Z,18.77
2022-12-19T20:47:28.057Z,19.92
2022-12-19T20:49:54.371Z,19.02
2022-12-19T20:52:20.702Z,19.40
2022-12-19T20:54:47.005Z,20.50
2022-12-19T20:57:13.365Z,20.90
2022-12-19T20:59:39.717Z,18.85
2022-12-19T21:02:06.577Z,19.67
2022-12-19T21:04:33.340Z,20.25
2022-12-19T21:06:59.831Z,19.60
2022-12-19T21:09:26.261Z,20.05
2022-12-19T21:11:52.637Z,20.20
2022-12-19T21:14:19.037Z,20.35
2022-12-19T21:16:45.509Z,20.67
2022-12-19T21:19:11.872Z,19.98
2022-12-19T21:21:38.243Z,20.25
2022-12-19T21:24:04.863Z,20.65
2022-12-19T21:26:31.188Z,21.00
2022-12-19T21:28:57.587Z,21.00
2022-12-19T21:31:27.360Z,20.48
2022-12-19T21:33:55.752Z,22.13
2022-12-19T21:36:23.290Z,20.48
2022-12-19T21:38:53.031Z,20.85
2022-12-19T21:41:19.799Z,20.27
2022-12-19T21:43:47.544Z,19.95
2022-12-19T21:46:15.646Z,21.10
2022-12-19T21:48:45.258Z,20.45
2022-12-19T21:51:12.663Z,19.58
2022-12-19T21:53:39.457Z,20.42
2022-12-19T21:56:27.492Z,19.63
2022-12-19T21:58:57.862Z,20.40
2022-12-19T22:01:24.927Z,19.55
2022-12-19T22:03:52.216Z,20.70
2022-12-19T22:06:27.793Z,19.55
2022-12-19T22:08:55.425Z,21.00
2022-12-19T22:11:22.298Z,20.92
2022-12-19T22:13:49.287Z,20.02
2022-12-19T22:16:16.919Z,20.35
2022-12-19T22:18:43.509Z,20.27
2022-12-19T22:21:14.951Z,20.52
2022-12-19T22:23:42.207Z,20.90
2022-12-19T22:26:12.374Z,20.52
2022-12-19T22:28:40.654Z,20.92
2022-12-19T22:31:19.685Z,20.85
2022-12-19T22:33:47.259Z,21.52
2022-12-19T22:36:15.504Z,21.00
2022-12-19T22:38:44.008Z,20.48
2022-12-19T22:41:11.231Z,20.83
2022-12-19T22:43:38.976Z,19.27
2022-12-19T22:46:14.295Z,20.65
2022-12-19T22:48:40.683Z,20.85
2022-12-19T22:51:07.554Z,19.98
2022-12-19T22:53:35.354Z,20.58
2022-12-19T22:56:22.948Z,20.55
2022-12-19T22:58:52.004Z,19.92
2022-12-19T23:01:19.790Z,19.85
2022-12-19T23:03:47.746Z,19.85
2022-12-19T23:06:14.902Z,19.80
2022-12-19T23:08:41.372Z,19.48
2022-12-19T23:11:14.716Z,20.13
2022-12-19T23:13:41.596Z,20.50
2022-12-19T23:16:09.092Z,20.88
2022-12-19T23:18:35.731Z,19.80
2022-12-19T23:21:23.159Z,20.40
2022-12-19T23:23:51.955Z,19.70
2022-12-19T23:26:31.311Z,19.05
2022-12-19T23:29:00.077Z,19.08
2022-12-19T23:31:27.832Z,19.30
2022-12-19T23:33:54.872Z,19.35
2022-12-19T23:36:45.104Z,17.85
2022-12-19T23:39:07.914Z,17.25
2022-12-19T23:41:34.243Z,18.13
2022-12-19T23:44:00.706Z,16.88
2022-12-19T23:46:27.910Z,16.77
2022-12-19T23:48:55.015Z,16.65
2022-12-19T23:51:24.341Z,14.77
2022-12-19T23:53:51.752Z,12.55
2022-12-19T23:56:23.947Z,11.05
2022-12-19T23:58:50.330Z,10.40
